sensor_id;sensor_type;location;lat;lon;timestamp;temperature;humidity
27823;DHT22;29019;47.630;8.262;2024-01-30T00:02:44;18.70;43.10
27823;DHT22;29019;47.630;8.262;2024-01-30T00:06:46;18.70;43.10
27823;DHT22;29019;47.630;8.262;2024-01-30T00:10:47;18.70;43.10
27823;DHT22;29019;47.630;8.262;2024-01-30T00:14:48;18.70;43.10
27823;DHT22;29019;47.630;8.262;2024-01-30T00:18:49;18.60;43.10
27823;DHT22;29019;47.630;8.262;2024-01-30T00:22:49;18.70;43.20
27823;DHT22;29019;47.630;8.262;2024-01-30T00:26:50;18.60;43.10
27823;DHT22;29019;47.630;8.262;2024-01-30T00:30:51;18.60;43.10
27823;DHT22;29019;47.630;8.262;2024-01-30T00:34:52;18.60;43.10
27823;DHT22;29019;47.630;8.262;2024-01-30T00:38:53;18.60;43.10
27823;DHT22;29019;47.630;8.262;2024-01-30T00:42:53;18.60;43.10
27823;DHT22;29019;47.630;8.262;2024-01-30T00:46:54;18.60;43.10
27823;DHT22;29019;47.630;8.262;2024-01-30T00:50:55;18.60;43.10
27823;DHT22;29019;47.630;8.262;2024-01-30T00:54:55;18.60;43.10
27823;DHT22;29019;47.630;8.262;2024-01-30T00:58:56;18.60;43.10
27823;DHT22;29019;47.630;8.262;2024-01-30T01:02:57;18.60;43.10
27823;DHT22;29019;47.630;8.262;2024-01-30T01:06:57;18.60;43.10
27823;DHT22;29019;47.630;8.262;2024-01-30T01:10:58;18.60;43.10
27823;DHT22;29019;47.630;8.262;2024-01-30T01:14:59;18.60;43.10
27823;DHT22;29019;47.630;8.262;2024-01-30T01:18:59;18.60;43.10
27823;DHT22;29019;47.630;8.262;2024-01-30T01:23:00;18.60;43.10
27823;DHT22;29019;47.630;8.262;2024-01-30T01:27:01;18.60;43.10
27823;DHT22;29019;47.630;8.262;2024-01-30T01:31:02;18.60;43.10
27823;DHT22;29019;47.630;8.262;2024-01-30T01:35:05;18.60;43.10
27823;DHT22;29019;47.630;8.262;2024-01-30T01:39:06;18.50;43.10
27823;DHT22;29019;47.630;8.262;2024-01-30T01:43:07;18.60;43.10
27823;DHT22;29019;47.630;8.262;2024-01-30T01:47:07;18.50;43.10
27823;DHT22;29019;47.630;8.262;2024-01-30T01:51:09;18.60;43.10
27823;DHT22;29019;47.630;8.262;2024-01-30T01:55:10;18.50;43.00
27823;DHT22;29019;47.630;8.262;2024-01-30T01:59:11;18.50;43.10
27823;DHT22;29019;47.630;8.262;2024-01-30T02:03:13;18.50;43.00
27823;DHT22;29019;47.630;8.262;2024-01-30T02:07:17;18.50;43.10
27823;DHT22;29019;47.630;8.262;2024-01-30T02:11:18;18.50;43.00
27823;DHT22;29019;47.630;8.262;2024-01-30T02:15:20;18.50;43.10
27823;DHT22;29019;47.630;8.262;2024-01-30T02:19:21;18.50;43.00
27823;DHT22;29019;47.630;8.262;2024-01-30T02:23:24;18.50;43.00
27823;DHT22;29019;47.630;8.262;2024-01-30T02:27:28;18.50;43.00
27823;DHT22;29019;47.630;8.262;2024-01-30T02:31:28;18.50;43.00
27823;DHT22;29019;47.630;8.262;2024-01-30T02:35:30;18.50;43.00
27823;DHT22;29019;47.630;8.262;2024-01-30T02:39:31;18.50;43.00
27823;DHT22;29019;47.630;8.262;2024-01-30T02:43:32;18.50;43.00
27823;DHT22;29019;47.630;8.262;2024-01-30T02:47:32;18.50;43.10
27823;DHT22;29019;47.630;8.262;2024-01-30T02:51:33;18.50;43.10
27823;DHT22;29019;47.630;8.262;2024-01-30T02:55:34;18.50;43.00
27823;DHT22;29019;47.630;8.262;2024-01-30T02:59:35;18.50;43.10
27823;DHT22;29019;47.630;8.262;2024-01-30T03:03:36;18.50;43.10
27823;DHT22;29019;47.630;8.262;2024-01-30T03:07:37;18.50;43.00
27823;DHT22;29019;47.630;8.262;2024-01-30T03:11:38;18.50;43.00
27823;DHT22;29019;47.630;8.262;2024-01-30T03:15:38;18.50;43.10
27823;DHT22;29019;47.630;8.262;2024-01-30T03:19:39;18.50;43.00
27823;DHT22;29019;47.630;8.262;2024-01-30T03:23:40;18.50;43.10
27823;DHT22;29019;47.630;8.262;2024-01-30T03:27:40;18.50;43.00
27823;DHT22;29019;47.630;8.262;2024-01-30T03:31:41;18.50;43.10
27823;DHT22;29019;47.630;8.262;2024-01-30T03:35:42;18.50;43.10
27823;DHT22;29019;47.630;8.262;2024-01-30T03:39:43;18.40;43.00
27823;DHT22;29019;47.630;8.262;2024-01-30T03:43:44;18.40;43.00
27823;DHT22;29019;47.630;8.262;2024-01-30T03:47:44;18.40;43.00
27823;DHT22;29019;47.630;8.262;2024-01-30T03:51:45;18.50;43.00
27823;DHT22;29019;47.630;8.262;2024-01-30T03:55:47;18.40;43.00
27823;DHT22;29019;47.630;8.262;2024-01-30T03:59:48;18.50;43.10
27823;DHT22;29019;47.630;8.262;2024-01-30T04:03:49;18.40;43.00
27823;DHT22;29019;47.630;8.262;2024-01-30T04:07:49;18.40;43.00
27823;DHT22;29019;47.630;8.262;2024-01-30T04:11:50;18.40;43.00
27823;DHT22;29019;47.630;8.262;2024-01-30T04:15:51;18.40;43.00
27823;DHT22;29019;47.630;8.262;2024-01-30T04:19:52;18.40;43.00
27823;DHT22;29019;47.630;8.262;2024-01-30T04:23:53;18.40;43.00
27823;DHT22;29019;47.630;8.262;2024-01-30T04:27:54;18.50;43.10
27823;DHT22;29019;47.630;8.262;2024-01-30T04:31:54;18.40;43.00
27823;DHT22;29019;47.630;8.262;2024-01-30T04:35:55;18.40;43.00
27823;DHT22;29019;47.630;8.262;2024-01-30T04:39:56;18.40;43.00
27823;DHT22;29019;47.630;8.262;2024-01-30T04:43:57;18.40;43.00
27823;DHT22;29019;47.630;8.262;2024-01-30T04:47:57;18.40;43.00
27823;DHT22;29019;47.630;8.262;2024-01-30T04:51:58;18.40;43.00
27823;DHT22;29019;47.630;8.262;2024-01-30T04:55:59;18.40;43.00
27823;DHT22;29019;47.630;8.262;2024-01-30T04:59:59;18.40;43.00
27823;DHT22;29019;47.630;8.262;2024-01-30T05:04:00;18.40;43.00
27823;DHT22;29019;47.630;8.262;2024-01-30T05:08:01;18.40;43.00
27823;DHT22;29019;47.630;8.262;2024-01-30T05:12:02;18.40;43.00
27823;DHT22;29019;47.630;8.262;2024-01-30T05:16:03;18.40;43.00
27823;DHT22;29019;47.630;8.262;2024-01-30T05:20:04;18.40;43.50
27823;DHT22;29019;47.630;8.262;2024-01-30T05:24:06;18.40;43.00
27823;DHT22;29019;47.630;8.262;2024-01-30T05:28:07;18.50;43.00
27823;DHT22;29019;47.630;8.262;2024-01-30T05:32:08;18.50;42.80
27823;DHT22;29019;47.630;8.262;2024-01-30T05:36:12;18.50;42.70
27823;DHT22;29019;47.630;8.262;2024-01-30T05:40:13;18.60;42.70
27823;DHT22;29019;47.630;8.262;2024-01-30T05:44:14;18.60;42.50
27823;DHT22;29019;47.630;8.262;2024-01-30T05:48:14;18.70;42.50
27823;DHT22;29019;47.630;8.262;2024-01-30T05:52:15;18.70;42.50
27823;DHT22;29019;47.630;8.262;2024-01-30T05:56:16;18.70;42.40
27823;DHT22;29019;47.630;8.262;2024-01-30T06:00:17;18.70;42.50
27823;DHT22;29019;47.630;8.262;2024-01-30T06:04:18;18.70;42.40
27823;DHT22;29019;47.630;8.262;2024-01-30T06:08:19;18.70;42.40
27823;DHT22;29019;47.630;8.262;2024-01-30T06:12:19;18.70;42.40
27823;DHT22;29019;47.630;8.262;2024-01-30T06:16:20;18.70;42.40
27823;DHT22;29019;47.630;8.262;2024-01-30T06:20:22;18.70;42.40
27823;DHT22;29019;47.630;8.262;2024-01-30T06:24:22;18.70;42.40
27823;DHT22;29019;47.630;8.262;2024-01-30T06:28:23;18.70;42.40
27823;DHT22;29019;47.630;8.262;2024-01-30T06:32:24;18.70;42.40
27823;DHT22;29019;47.630;8.262;2024-01-30T06:36:25;18.70;42.40
27823;DHT22;29019;47.630;8.262;2024-01-30T06:40:26;18.70;42.40
27823;DHT22;29019;47.630;8.262;2024-01-30T06:44:26;18.70;42.40
27823;DHT22;29019;47.630;8.262;2024-01-30T06:48:27;18.70;42.40
27823;DHT22;29019;47.630;8.262;2024-01-30T06:52:28;18.70;42.30
27823;DHT22;29019;47.630;8.262;2024-01-30T06:56:29;18.70;42.30
27823;DHT22;29019;47.630;8.262;2024-01-30T07:00:30;18.70;42.30
27823;DHT22;29019;47.630;8.262;2024-01-30T07:04:31;18.70;42.30
27823;DHT22;29019;47.630;8.262;2024-01-30T07:08:32;18.70;42.90
27823;DHT22;29019;47.630;8.262;2024-01-30T07:12:32;18.70;42.30
27823;DHT22;29019;47.630;8.262;2024-01-30T07:16:33;18.70;42.30
27823;DHT22;29019;47.630;8.262;2024-01-30T07:20:34;18.70;42.30
27823;DHT22;29019;47.630;8.262;2024-01-30T07:24:35;18.70;42.30
27823;DHT22;29019;47.630;8.262;2024-01-30T07:28:36;18.80;42.30
27823;DHT22;29019;47.630;8.262;2024-01-30T07:32:37;18.70;42.30
27823;DHT22;29019;47.630;8.262;2024-01-30T07:36:38;18.80;42.30
27823;DHT22;29019;47.630;8.262;2024-01-30T07:40:38;18.70;42.30
27823;DHT22;29019;47.630;8.262;2024-01-30T07:44:39;18.70;42.30
27823;DHT22;29019;47.630;8.262;2024-01-30T07:48:40;18.80;42.30
27823;DHT22;29019;47.630;8.262;2024-01-30T07:52:43;18.80;42.30
27823;DHT22;29019;47.630;8.262;2024-01-30T07:56:44;18.80;42.30
27823;DHT22;29019;47.630;8.262;2024-01-30T08:00:44;18.80;42.30
27823;DHT22;29019;47.630;8.262;2024-01-30T08:04:45;18.80;42.30
27823;DHT22;29019;47.630;8.262;2024-01-30T08:08:49;18.80;42.30
27823;DHT22;29019;47.630;8.262;2024-01-30T08:12:53;18.80;42.30
27823;DHT22;29019;47.630;8.262;2024-01-30T08:16:54;18.80;42.20
27823;DHT22;29019;47.630;8.262;2024-01-30T08:20:55;18.80;42.20
27823;DHT22;29019;47.630;8.262;2024-01-30T08:24:56;18.80;42.20
27823;DHT22;29019;47.630;8.262;2024-01-30T08:28:57;18.80;42.20
27823;DHT22;29019;47.630;8.262;2024-01-30T08:32:57;18.80;42.20
27823;DHT22;29019;47.630;8.262;2024-01-30T08:36:58;18.80;42.20
27823;DHT22;29019;47.630;8.262;2024-01-30T08:40:59;18.80;42.20
27823;DHT22;29019;47.630;8.262;2024-01-30T08:44:59;18.80;42.20
27823;DHT22;29019;47.630;8.262;2024-01-30T08:49:00;18.80;42.20
27823;DHT22;29019;47.630;8.262;2024-01-30T08:53:01;18.80;42.20
27823;DHT22;29019;47.630;8.262;2024-01-30T08:57:01;18.80;42.20
27823;DHT22;29019;47.630;8.262;2024-01-30T09:01:02;18.80;42.20
27823;DHT22;29019;47.630;8.262;2024-01-30T09:05:05;18.80;42.20
27823;DHT22;29019;47.630;8.262;2024-01-30T09:09:06;18.80;42.20
27823;DHT22;29019;47.630;8.262;2024-01-30T09:13:07;18.80;42.20
27823;DHT22;29019;47.630;8.262;2024-01-30T09:17:08;18.80;42.20
27823;DHT22;29019;47.630;8.262;2024-01-30T09:21:10;18.80;42.20
27823;DHT22;29019;47.630;8.262;2024-01-30T09:25:10;18.80;42.20
27823;DHT22;29019;47.630;8.262;2024-01-30T09:29:11;18.80;42.10
27823;DHT22;29019;47.630;8.262;2024-01-30T09:33:12;18.80;42.10
27823;DHT22;29019;47.630;8.262;2024-01-30T09:37:12;18.80;42.20
27823;DHT22;29019;47.630;8.262;2024-01-30T09:41:15;18.80;42.10
27823;DHT22;29019;47.630;8.262;2024-01-30T09:45:23;18.80;42.20
27823;DHT22;29019;47.630;8.262;2024-01-30T09:49:25;18.80;42.10
27823;DHT22;29019;47.630;8.262;2024-01-30T09:53:26;18.80;42.10
27823;DHT22;29019;47.630;8.262;2024-01-30T09:57:27;18.80;42.10
27823;DHT22;29019;47.630;8.262;2024-01-30T10:01:28;18.80;42.10
27823;DHT22;29019;47.630;8.262;2024-01-30T10:05:31;18.80;42.20
27823;DHT22;29019;47.630;8.262;2024-01-30T10:09:34;18.80;42.20
27823;DHT22;29019;47.630;8.262;2024-01-30T10:13:35;18.80;42.20
27823;DHT22;29019;47.630;8.262;2024-01-30T10:17:37;18.80;42.20
27823;DHT22;29019;47.630;8.262;2024-01-30T10:21:38;18.80;42.20
27823;DHT22;29019;47.630;8.262;2024-01-30T10:25:39;18.80;42.20
27823;DHT22;29019;47.630;8.262;2024-01-30T10:29:39;18.70;42.20
27823;DHT22;29019;47.630;8.262;2024-01-30T10:33:40;18.80;42.20
27823;DHT22;29019;47.630;8.262;2024-01-30T10:37:47;18.80;42.20
27823;DHT22;29019;47.630;8.262;2024-01-30T10:41:48;18.80;42.20
27823;DHT22;29019;47.630;8.262;2024-01-30T10:45:53;18.80;42.20
27823;DHT22;29019;47.630;8.262;2024-01-30T10:49:56;18.80;42.20
27823;DHT22;29019;47.630;8.262;2024-01-30T10:53:57;18.80;42.20
27823;DHT22;29019;47.630;8.262;2024-01-30T10:57:58;18.80;42.20
27823;DHT22;29019;47.630;8.262;2024-01-30T11:02:00;18.80;42.20
27823;DHT22;29019;47.630;8.262;2024-01-30T11:06:01;18.80;42.20
27823;DHT22;29019;47.630;8.262;2024-01-30T11:10:04;18.80;42.20
27823;DHT22;29019;47.630;8.262;2024-01-30T11:14:04;18.80;42.20
27823;DHT22;29019;47.630;8.262;2024-01-30T11:18:05;18.80;42.20
27823;DHT22;29019;47.630;8.262;2024-01-30T11:22:07;18.80;42.20
27823;DHT22;29019;47.630;8.262;2024-01-30T11:26:10;18.70;42.10
27823;DHT22;29019;47.630;8.262;2024-01-30T11:30:21;18.80;42.20
27823;DHT22;29019;47.630;8.262;2024-01-30T11:34:23;18.80;42.20
27823;DHT22;29019;47.630;8.262;2024-01-30T11:38:26;18.80;42.20
27823;DHT22;29019;47.630;8.262;2024-01-30T11:42:28;18.80;42.20
27823;DHT22;29019;47.630;8.262;2024-01-30T11:46:30;18.70;42.20
27823;DHT22;29019;47.630;8.262;2024-01-30T11:50:35;18.80;42.20
27823;DHT22;29019;47.630;8.262;2024-01-30T11:54:39;18.70;42.20
27823;DHT22;29019;47.630;8.262;2024-01-30T11:58:42;18.70;42.20
27823;DHT22;29019;47.630;8.262;2024-01-30T12:02:48;18.70;42.20
27823;DHT22;29019;47.630;8.262;2024-01-30T12:06:52;18.70;42.70
27823;DHT22;29019;47.630;8.262;2024-01-30T12:11:02;18.80;42.20
27823;DHT22;29019;47.630;8.262;2024-01-30T12:15:06;18.70;42.20
27823;DHT22;29019;47.630;8.262;2024-01-30T12:19:06;18.70;42.30
27823;DHT22;29019;47.630;8.262;2024-01-30T12:23:07;18.70;42.30
27823;DHT22;29019;47.630;8.262;2024-01-30T12:27:08;18.70;42.30
27823;DHT22;29019;47.630;8.262;2024-01-30T12:31:09;18.70;42.20
27823;DHT22;29019;47.630;8.262;2024-01-30T12:35:17;18.70;42.80
27823;DHT22;29019;47.630;8.262;2024-01-30T12:39:18;18.70;42.30
27823;DHT22;29019;47.630;8.262;2024-01-30T12:43:19;18.70;42.30
27823;DHT22;29019;47.630;8.262;2024-01-30T12:47:23;18.70;42.30
27823;DHT22;29019;47.630;8.262;2024-01-30T12:51:24;18.70;42.30
27823;DHT22;29019;47.630;8.262;2024-01-30T12:55:24;18.70;42.30
27823;DHT22;29019;47.630;8.262;2024-01-30T12:59:28;18.70;42.30
27823;DHT22;29019;47.630;8.262;2024-01-30T13:03:29;18.70;42.30
27823;DHT22;29019;47.630;8.262;2024-01-30T13:07:30;18.70;42.30
27823;DHT22;29019;47.630;8.262;2024-01-30T13:11:30;18.70;42.40
27823;DHT22;29019;47.630;8.262;2024-01-30T13:15:32;18.70;42.30
27823;DHT22;29019;47.630;8.262;2024-01-30T13:19:33;18.70;42.30
27823;DHT22;29019;47.630;8.262;2024-01-30T13:23:33;18.60;42.30
27823;DHT22;29019;47.630;8.262;2024-01-30T13:27:35;18.60;42.30
27823;DHT22;29019;47.630;8.262;2024-01-30T13:31:35;18.70;42.30
27823;DHT22;29019;47.630;8.262;2024-01-30T13:35:36;18.70;42.30
27823;DHT22;29019;47.630;8.262;2024-01-30T13:39:37;18.70;42.30
27823;DHT22;29019;47.630;8.262;2024-01-30T13:43:39;18.70;42.30
27823;DHT22;29019;47.630;8.262;2024-01-30T13:47:40;18.70;42.30
27823;DHT22;29019;47.630;8.262;2024-01-30T13:51:43;18.70;42.30
27823;DHT22;29019;47.630;8.262;2024-01-30T13:55:43;18.60;42.30
27823;DHT22;29019;47.630;8.262;2024-01-30T13:59:44;18.70;42.30
27823;DHT22;29019;47.630;8.262;2024-01-30T14:03:45;18.70;42.30
27823;DHT22;29019;47.630;8.262;2024-01-30T14:07:46;18.70;42.40
27823;DHT22;29019;47.630;8.262;2024-01-30T14:11:47;18.70;42.30
27823;DHT22;29019;47.630;8.262;2024-01-30T14:15:47;18.70;42.30
27823;DHT22;29019;47.630;8.262;2024-01-30T14:19:48;18.70;42.40
27823;DHT22;29019;47.630;8.262;2024-01-30T14:23:49;18.70;42.30
27823;DHT22;29019;47.630;8.262;2024-01-30T14:27:51;18.60;42.30
27823;DHT22;29019;47.630;8.262;2024-01-30T14:31:52;18.60;42.40
27823;DHT22;29019;47.630;8.262;2024-01-30T14:35:53;18.60;42.40
27823;DHT22;29019;47.630;8.262;2024-01-30T14:39:54;18.60;42.40
27823;DHT22;29019;47.630;8.262;2024-01-30T14:43:54;18.60;42.40
27823;DHT22;29019;47.630;8.262;2024-01-30T14:47:55;18.60;42.40
27823;DHT22;29019;47.630;8.262;2024-01-30T14:51:56;18.60;42.40
27823;DHT22;29019;47.630;8.262;2024-01-30T14:55:58;18.60;42.40
27823;DHT22;29019;47.630;8.262;2024-01-30T14:59:59;18.60;42.40
27823;DHT22;29019;47.630;8.262;2024-01-30T15:04:00;18.60;42.40
27823;DHT22;29019;47.630;8.262;2024-01-30T15:08:00;18.70;42.40
27823;DHT22;29019;47.630;8.262;2024-01-30T15:12:01;18.70;42.40
27823;DHT22;29019;47.630;8.262;2024-01-30T15:16:03;18.70;42.40
27823;DHT22;29019;47.630;8.262;2024-01-30T15:20:05;18.60;42.30
27823;DHT22;29019;47.630;8.262;2024-01-30T15:24:06;18.60;42.40
27823;DHT22;29019;47.630;8.262;2024-01-30T15:28:07;18.60;42.40
27823;DHT22;29019;47.630;8.262;2024-01-30T15:32:10;18.60;42.40
27823;DHT22;29019;47.630;8.262;2024-01-30T15:36:11;18.60;42.40
27823;DHT22;29019;47.630;8.262;2024-01-30T15:40:14;18.70;42.40
27823;DHT22;29019;47.630;8.262;2024-01-30T15:44:16;18.60;42.40
27823;DHT22;29019;47.630;8.262;2024-01-30T15:48:20;18.60;42.40
27823;DHT22;29019;47.630;8.262;2024-01-30T15:52:21;18.70;42.40
27823;DHT22;29019;47.630;8.262;2024-01-30T15:56:22;18.70;42.90
27823;DHT22;29019;47.630;8.262;2024-01-30T16:00:23;18.70;42.30
27823;DHT22;29019;47.630;8.262;2024-01-30T16:04:24;18.70;42.30
27823;DHT22;29019;47.630;8.262;2024-01-30T16:08:25;18.60;42.30
27823;DHT22;29019;47.630;8.262;2024-01-30T16:12:27;18.60;42.40
27823;DHT22;29019;47.630;8.262;2024-01-30T16:16:28;18.60;42.40
27823;DHT22;29019;47.630;8.262;2024-01-30T16:20:29;18.60;42.40
27823;DHT22;29019;47.630;8.262;2024-01-30T16:24:30;18.60;42.50
27823;DHT22;29019;47.630;8.262;2024-01-30T16:28:30;18.60;42.50
27823;DHT22;29019;47.630;8.262;2024-01-30T16:32:33;18.60;42.70
27823;DHT22;29019;47.630;8.262;2024-01-30T16:36:33;18.60;42.90
27823;DHT22;29019;47.630;8.262;2024-01-30T16:40:34;18.70;45.30
27823;DHT22;29019;47.630;8.262;2024-01-30T16:44:35;18.80;44.50
27823;DHT22;29019;47.630;8.262;2024-01-30T16:48:35;18.80;45.00
27823;DHT22;29019;47.630;8.262;2024-01-30T16:52:36;18.80;45.10
27823;DHT22;29019;47.630;8.262;2024-01-30T16:56:37;18.90;44.50
27823;DHT22;29019;47.630;8.262;2024-01-30T17:00:38;18.90;44.90
27823;DHT22;29019;47.630;8.262;2024-01-30T17:04:39;18.90;44.90
27823;DHT22;29019;47.630;8.262;2024-01-30T17:08:40;18.90;44.60
27823;DHT22;29019;47.630;8.262;2024-01-30T17:12:40;18.90;44.70
27823;DHT22;29019;47.630;8.262;2024-01-30T17:16:41;19.00;44.80
27823;DHT22;29019;47.630;8.262;2024-01-30T17:20:42;19.00;44.60
27823;DHT22;29019;47.630;8.262;2024-01-30T17:24:43;19.00;44.60
27823;DHT22;29019;47.630;8.262;2024-01-30T17:28:43;19.00;45.00
27823;DHT22;29019;47.630;8.262;2024-01-30T17:32:44;19.10;45.80
27823;DHT22;29019;47.630;8.262;2024-01-30T17:36:45;19.10;47.00
27823;DHT22;29019;47.630;8.262;2024-01-30T17:40:45;19.10;47.10
27823;DHT22;29019;47.630;8.262;2024-01-30T17:44:46;19.20;46.80
27823;DHT22;29019;47.630;8.262;2024-01-30T17:48:47;19.20;46.80
27823;DHT22;29019;47.630;8.262;2024-01-30T17:52:50;19.20;46.00
27823;DHT22;29019;47.630;8.262;2024-01-30T17:56:53;19.20;46.10
27823;DHT22;29019;47.630;8.262;2024-01-30T18:00:53;19.10;45.00
27823;DHT22;29019;47.630;8.262;2024-01-30T18:04:54;19.10;45.90
27823;DHT22;29019;47.630;8.262;2024-01-30T18:08:55;19.20;46.20
27823;DHT22;29019;47.630;8.262;2024-01-30T18:12:56;19.10;46.40
27823;DHT22;29019;47.630;8.262;2024-01-30T18:16:59;19.00;45.30
27823;DHT22;29019;47.630;8.262;2024-01-30T18:21:00;18.70;44.30
27823;DHT22;29019;47.630;8.262;2024-01-30T18:25:00;18.50;44.00
27823;DHT22;29019;47.630;8.262;2024-01-30T18:29:01;18.40;43.10
27823;DHT22;29019;47.630;8.262;2024-01-30T18:33:02;18.20;42.90
27823;DHT22;29019;47.630;8.262;2024-01-30T18:37:03;18.20;42.80
27823;DHT22;29019;47.630;8.262;2024-01-30T18:41:04;18.10;42.40
27823;DHT22;29019;47.630;8.262;2024-01-30T18:45:05;18.10;42.40
27823;DHT22;29019;47.630;8.262;2024-01-30T18:49:06;18.10;42.40
27823;DHT22;29019;47.630;8.262;2024-01-30T18:53:07;18.10;42.10
27823;DHT22;29019;47.630;8.262;2024-01-30T18:57:07;18.30;42.10
27823;DHT22;29019;47.630;8.262;2024-01-30T19:01:08;18.50;43.30
27823;DHT22;29019;47.630;8.262;2024-01-30T19:05:09;18.70;43.50
27823;DHT22;29019;47.630;8.262;2024-01-30T19:09:10;18.90;44.80
27823;DHT22;29019;47.630;8.262;2024-01-30T19:13:11;19.10;45.10
27823;DHT22;29019;47.630;8.262;2024-01-30T19:17:12;19.10;45.10
27823;DHT22;29019;47.630;8.262;2024-01-30T19:21:13;19.10;45.30
27823;DHT22;29019;47.630;8.262;2024-01-30T19:25:14;19.20;45.40
27823;DHT22;29019;47.630;8.262;2024-01-30T19:29:15;19.20;45.40
27823;DHT22;29019;47.630;8.262;2024-01-30T19:33:15;19.20;45.50
27823;DHT22;29019;47.630;8.262;2024-01-30T19:37:16;19.30;46.10
27823;DHT22;29019;47.630;8.262;2024-01-30T19:41:22;19.40;46.00
27823;DHT22;29019;47.630;8.262;2024-01-30T19:45:23;19.50;46.10
27823;DHT22;29019;47.630;8.262;2024-01-30T19:49:24;19.50;46.20
27823;DHT22;29019;47.630;8.262;2024-01-30T19:53:24;19.50;46.10
27823;DHT22;29019;47.630;8.262;2024-01-30T19:57:25;19.50;45.50
27823;DHT22;29019;47.630;8.262;2024-01-30T20:01:26;19.40;45.70
27823;DHT22;29019;47.630;8.262;2024-01-30T20:05:26;19.50;45.90
27823;DHT22;29019;47.630;8.262;2024-01-30T20:09:27;19.40;46.30
27823;DHT22;29019;47.630;8.262;2024-01-30T20:13:28;19.50;46.10
27823;DHT22;29019;47.630;8.262;2024-01-30T20:17:29;19.30;45.40
27823;DHT22;29019;47.630;8.262;2024-01-30T20:21:32;19.00;44.50
27823;DHT22;29019;47.630;8.262;2024-01-30T20:25:32;19.10;43.90
27823;DHT22;29019;47.630;8.262;2024-01-30T20:29:33;19.20;44.20
27823;DHT22;29019;47.630;8.262;2024-01-30T20:33:34;19.30;44.20
27823;DHT22;29019;47.630;8.262;2024-01-30T20:37:38;19.40;44.20
27823;DHT22;29019;47.630;8.262;2024-01-30T20:41:39;19.50;45.20
27823;DHT22;29019;47.630;8.262;2024-01-30T20:45:40;19.60;45.40
27823;DHT22;29019;47.630;8.262;2024-01-30T20:49:41;19.70;45.60
27823;DHT22;29019;47.630;8.262;2024-01-30T20:53:41;19.70;46.00
27823;DHT22;29019;47.630;8.262;2024-01-30T20:57:44;19.60;45.20
27823;DHT22;29019;47.630;8.262;2024-01-30T21:01:45;19.50;45.10
27823;DHT22;29019;47.630;8.262;2024-01-30T21:05:45;19.60;45.10
27823;DHT22;29019;47.630;8.262;2024-01-30T21:09:46;19.50;45.20
27823;DHT22;29019;47.630;8.262;2024-01-30T21:13:47;19.50;45.20
27823;DHT22;29019;47.630;8.262;2024-01-30T21:17:48;19.60;45.40
27823;DHT22;29019;47.630;8.262;2024-01-30T21:21:49;19.60;45.60
27823;DHT22;29019;47.630;8.262;2024-01-30T21:25:50;19.60;46.00
27823;DHT22;29019;47.630;8.262;2024-01-30T21:29:50;19.70;45.80
27823;DHT22;29019;47.630;8.262;2024-01-30T21:33:51;19.60;45.70
27823;DHT22;29019;47.630;8.262;2024-01-30T21:37:52;19.60;45.90
27823;DHT22;29019;47.630;8.262;2024-01-30T21:41:52;19.70;46.10
27823;DHT22;29019;47.630;8.262;2024-01-30T21:45:53;19.70;46.20
27823;DHT22;29019;47.630;8.262;2024-01-30T21:49:54;19.60;46.20
27823;DHT22;29019;47.630;8.262;2024-01-30T21:53:55;19.70;46.80
27823;DHT22;29019;47.630;8.262;2024-01-30T21:57:56;19.70;46.50
27823;DHT22;29019;47.630;8.262;2024-01-30T22:01:57;19.70;46.60
27823;DHT22;29019;47.630;8.262;2024-01-30T22:05:57;19.80;46.80
27823;DHT22;29019;47.630;8.262;2024-01-30T22:09:58;19.70;46.70
27823;DHT22;29019;47.630;8.262;2024-01-30T22:13:59;19.80;46.90
27823;DHT22;29019;47.630;8.262;2024-01-30T22:18:00;19.70;46.80
27823;DHT22;29019;47.630;8.262;2024-01-30T22:22:01;19.70;46.90
27823;DHT22;29019;47.630;8.262;2024-01-30T22:26:02;19.70;47.00
27823;DHT22;29019;47.630;8.262;2024-01-30T22:30:03;19.80;46.90
27823;DHT22;29019;47.630;8.262;2024-01-30T22:34:04;19.70;46.90
27823;DHT22;29019;47.630;8.262;2024-01-30T22:38:05;19.70;47.00
27823;DHT22;29019;47.630;8.262;2024-01-30T22:42:07;19.80;47.10
27823;DHT22;29019;47.630;8.262;2024-01-30T22:46:09;19.80;46.80
27823;DHT22;29019;47.630;8.262;2024-01-30T22:50:09;19.70;46.60
27823;DHT22;29019;47.630;8.262;2024-01-30T22:54:10;19.70;46.70
27823;DHT22;29019;47.630;8.262;2024-01-30T22:58:11;19.70;47.20
27823;DHT22;29019;47.630;8.262;2024-01-30T23:02:11;19.80;47.00
27823;DHT22;29019;47.630;8.262;2024-01-30T23:06:12;19.70;47.00
27823;DHT22;29019;47.630;8.262;2024-01-30T23:10:13;19.70;47.00
27823;DHT22;29019;47.630;8.262;2024-01-30T23:14:14;19.70;46.90
27823;DHT22;29019;47.630;8.262;2024-01-30T23:18:14;19.70;46.60
27823;DHT22;29019;47.630;8.262;2024-01-30T23:22:15;19.70;46.70
27823;DHT22;29019;47.630;8.262;2024-01-30T23:26:16;19.60;46.90
27823;DHT22;29019;47.630;8.262;2024-01-30T23:30:17;19.60;47.10
27823;DHT22;29019;47.630;8.262;2024-01-30T23:34:18;19.60;47.70
27823;DHT22;29019;47.630;8.262;2024-01-30T23:38:18;19.60;47.00
27823;DHT22;29019;47.630;8.262;2024-01-30T23:42:19;19.60;47.20
27823;DHT22;29019;47.630;8.262;2024-01-30T23:46:20;19.60;47.20
27823;DHT22;29019;47.630;8.262;2024-01-30T23:50:20;19.60;46.90
27823;DHT22;29019;47.630;8.262;2024-01-30T23:54:21;19.60;47.20
27823;DHT22;29019;47.630;8.262;2024-01-30T23:58:22;19.60;47.20
